Time;durP1;ratioP1;P1;durP2;ratioP2;P2;SDS_P1;SDS_P2;PMS_P1;PMS_P2;Temp;Humidity;BMP_temperature;BMP_pressure;BME280_temperature;BME280_humidity;BME280_pressure;Samples;Min_cycle;Max_cycle;Signal;HPM_P1;HPM_P2
2023/12/27 00:01:54;;;;;;;9.43;4.75;;;17.80;62.20;;;;;;4972368;28;20110;-64
2023/12/27 00:04:19;;;;;;;6.53;3.28;;;17.70;62.10;;;;;;4966641;28;20163;-66
2023/12/27 00:06:45;;;;;;;6.30;3.72;;;17.70;62.10;;;;;;4966589;28;20031;-66
2023/12/27 00:09:10;;;;;;;6.82;4.03;;;17.70;62.10;;;;;;4966132;28;20101;-66
2023/12/27 00:11:36;;;;;;;7.72;3.88;;;17.70;62.10;;;;;;4969217;28;20109;-67
2023/12/27 00:14:02;;;;;;;6.00;3.65;;;17.70;62.10;;;;;;4965194;28;20034;-64
2023/12/27 00:16:29;;;;;;;7.45;3.75;;;17.70;62.10;;;;;;4972758;28;20078;-66
2023/12/27 00:18:55;;;;;;;8.32;3.95;;;17.70;62.10;;;;;;4969737;28;20518;-66
2023/12/27 00:21:20;;;;;;;6.80;3.80;;;17.70;62.10;;;;;;4975288;28;20062;-66
2023/12/27 00:23:45;;;;;;;6.22;3.40;;;17.70;62.10;;;;;;4976689;28;20624;-65
2023/12/27 00:26:11;;;;;;;7.50;4.00;;;17.70;62.10;;;;;;4967870;28;20027;-65
2023/12/27 00:28:36;;;;;;;5.93;3.58;;;17.70;62.10;;;;;;4976460;28;20073;-66
2023/12/27 00:31:02;;;;;;;5.85;3.78;;;17.80;62.00;;;;;;4962001;28;20027;-65
2023/12/27 00:33:27;;;;;;;7.25;3.80;;;17.90;61.70;;;;;;4968930;28;20069;-66
2023/12/27 00:35:53;;;;;;;6.75;3.28;;;18.10;61.30;;;;;;4969632;28;20039;-66
2023/12/27 00:38:19;;;;;;;5.72;3.55;;;18.30;60.80;;;;;;4969580;28;20071;-66
2023/12/27 00:40:44;;;;;;;4.70;3.40;;;18.60;60.10;;;;;;4973736;28;20038;-66
2023/12/27 00:43:09;;;;;;;8.23;3.28;;;18.80;59.40;;;;;;4978472;28;20102;-66
2023/12/27 00:45:35;;;;;;;6.38;3.60;;;19.00;59.00;;;;;;4976157;28;20034;-66
2023/12/27 00:48:00;;;;;;;7.00;3.85;;;19.20;58.50;;;;;;4968975;28;20050;-63
2023/12/27 00:50:26;;;;;;;6.95;3.55;;;19.40;58.00;;;;;;4969050;28;20451;-65
2023/12/27 00:52:51;;;;;;;8.95;3.90;;;19.70;57.70;;;;;;4974131;28;20065;-66
2023/12/27 00:55:17;;;;;;;6.32;3.40;;;19.80;57.30;;;;;;4969466;28;20043;-67
2023/12/27 00:57:42;;;;;;;4.88;3.03;;;20.00;57.10;;;;;;4972871;28;20042;-65
2023/12/27 01:00:08;;;;;;;6.03;3.78;;;20.00;56.70;;;;;;4955563;28;20043;-66
2023/12/27 01:02:35;;;;;;;6.40;2.90;;;20.10;56.80;;;;;;4945963;28;20028;-65
2023/12/27 01:05:00;;;;;;;5.60;3.53;;;20.10;56.80;;;;;;4949588;28;20534;-66
2023/12/27 01:07:26;;;;;;;7.68;4.30;;;20.10;56.80;;;;;;4951929;28;20045;-66
2023/12/27 01:09:51;;;;;;;5.55;3.30;;;20.00;56.90;;;;;;4973934;28;20050;-65
2023/12/27 01:12:17;;;;;;;5.07;2.85;;;20.00;57.10;;;;;;4966488;28;20051;-65
2023/12/27 01:14:42;;;;;;;6.13;3.08;;;19.90;57.30;;;;;;4969371;28;20034;-65
2023/12/27 01:17:08;;;;;;;4.97;3.03;;;19.80;57.40;;;;;;4970326;28;20070;-67
2023/12/27 01:19:34;;;;;;;4.88;2.78;;;19.80;57.60;;;;;;4976048;28;20019;-65
2023/12/27 01:22:00;;;;;;;5.70;2.88;;;19.70;57.70;;;;;;4980550;28;20022;-67
2023/12/27 01:24:25;;;;;;;5.55;3.38;;;19.60;57.90;;;;;;4968376;28;20037;-63
2023/12/27 01:26:51;;;;;;;5.03;3.05;;;19.60;58.00;;;;;;4972946;28;20061;-65
2023/12/27 01:29:16;;;;;;;5.03;2.88;;;19.50;58.20;;;;;;4971394;28;20027;-66
2023/12/27 01:31:42;;;;;;;6.43;3.33;;;19.40;58.30;;;;;;4970742;28;20513;-65
2023/12/27 01:34:07;;;;;;;4.43;2.85;;;19.40;58.40;;;;;;4971674;28;20034;-66
2023/12/27 01:36:33;;;;;;;5.15;2.88;;;19.30;58.50;;;;;;4967894;28;20077;-65
2023/12/27 01:38:58;;;;;;;4.13;2.70;;;19.30;58.60;;;;;;4980246;28;20041;-68
2023/12/27 01:41:23;;;;;;;3.95;2.42;;;19.20;58.70;;;;;;4965854;28;20042;-65
2023/12/27 01:43:49;;;;;;;5.20;3.40;;;19.20;58.90;;;;;;4968472;28;20035;-65
2023/12/27 01:46:14;;;;;;;4.85;2.70;;;19.10;59.00;;;;;;4966402;28;20126;-66
2023/12/27 01:48:41;;;;;;;4.43;2.60;;;19.00;59.00;;;;;;4977688;28;20186;-65
2023/12/27 01:51:07;;;;;;;4.88;2.78;;;19.10;59.20;;;;;;4967735;28;20407;-66
2023/12/27 01:53:33;;;;;;;5.38;2.85;;;19.00;59.20;;;;;;4975268;28;20090;-66
2023/12/27 01:55:59;;;;;;;5.72;2.78;;;18.90;59.20;;;;;;4970823;28;20053;-65
2023/12/27 01:58:26;;;;;;;5.93;2.92;;;18.90;59.30;;;;;;4972797;28;20489;-66
2023/12/27 02:00:52;;;;;;;5.05;2.40;;;18.80;59.40;;;;;;4966763;28;20494;-65
2023/12/27 02:03:18;;;;;;;6.47;3.35;;;18.80;59.50;;;;;;4973519;28;20035;-65
2023/12/27 02:05:45;;;;;;;3.72;2.22;;;18.80;59.60;;;;;;4968883;28;20085;-65
2023/12/27 02:08:11;;;;;;;5.82;2.40;;;18.70;59.60;;;;;;4968504;28;20035;-64
2023/12/27 02:10:37;;;;;;;5.20;2.58;;;18.70;59.70;;;;;;4973817;28;20754;-65
2023/12/27 02:13:04;;;;;;;3.75;2.50;;;18.70;59.80;;;;;;4973323;28;20038;-66
2023/12/27 02:15:29;;;;;;;5.43;2.50;;;18.60;59.80;;;;;;4967520;28;20030;-65
2023/12/27 02:17:56;;;;;;;3.78;2.40;;;18.60;59.90;;;;;;4972185;28;20034;-65
2023/12/27 02:20:23;;;;;;;3.00;1.88;;;18.60;59.90;;;;;;4967969;28;20054;-65
2023/12/27 02:22:52;;;;;;;6.00;2.78;;;18.60;60.00;;;;;;4973347;28;20042;-65
2023/12/27 02:25:18;;;;;;;2.45;1.90;;;18.60;60.00;;;;;;4966359;28;20122;-65
2023/12/27 02:27:45;;;;;;;5.32;2.42;;;18.50;60.00;;;;;;4970740;28;20520;-66
2023/12/27 02:30:21;;;;;;;4.95;2.55;;;18.50;60.00;;;;;;4973821;28;20063;-65
2023/12/27 02:32:50;;;;;;;5.32;2.35;;;18.50;60.00;;;;;;4967904;28;20039;-65
2023/12/27 02:35:17;;;;;;;4.60;2.50;;;18.50;60.00;;;;;;4966554;28;20050;-66
2023/12/27 02:37:43;;;;;;;3.55;2.30;;;18.40;60.10;;;;;;4963392;28;20039;-65
2023/12/27 02:40:09;;;;;;;4.63;2.35;;;18.40;60.10;;;;;;4976931;28;20104;-65
2023/12/27 02:42:39;;;;;;;3.90;2.00;;;18.40;60.10;;;;;;4969026;28;20110;-64
2023/12/27 02:45:06;;;;;;;3.95;1.70;;;18.40;60.20;;;;;;4969247;28;20037;-66
2023/12/27 02:47:32;;;;;;;2.25;1.63;;;18.40;60.20;;;;;;4972009;28;20042;-65
2023/12/27 02:49:57;;;;;;;3.83;2.00;;;18.30;60.10;;;;;;4971805;28;20057;-66
2023/12/27 02:52:22;;;;;;;3.67;1.90;;;18.30;60.20;;;;;;4972847;28;20031;-65
2023/12/27 02:54:48;;;;;;;5.88;2.55;;;18.30;60.30;;;;;;4977894;28;20039;-66
2023/12/27 02:57:13;;;;;;;3.17;1.88;;;18.30;60.20;;;;;;4965645;28;20023;-64
2023/12/27 02:59:39;;;;;;;3.05;1.88;;;18.20;60.20;;;;;;4969163;28;20024;-66
2023/12/27 03:02:05;;;;;;;3.03;1.40;;;18.20;60.20;;;;;;4963972;28;20042;-67
2023/12/27 03:04:30;;;;;;;9.40;2.10;;;18.20;60.20;;;;;;4943652;28;20043;-65
2023/12/27 03:06:56;;;;;;;3.15;1.85;;;18.20;60.10;;;;;;4943702;28;20086;-64
2023/12/27 03:09:21;;;;;;;3.13;1.60;;;18.20;60.80;;;;;;4951394;28;21491;-64
2023/12/27 03:11:47;;;;;;;3.90;2.00;;;18.20;60.30;;;;;;4945581;28;20036;-64
2023/12/27 03:14:13;;;;;;;2.78;1.60;;;18.20;60.30;;;;;;4956118;28;20640;-65
2023/12/27 03:16:39;;;;;;;2.10;1.40;;;18.20;60.20;;;;;;4957422;28;20035;-65
2023/12/27 03:19:04;;;;;;;2.25;1.50;;;18.10;60.10;;;;;;4947666;28;20035;-65
2023/12/27 03:21:29;;;;;;;3.67;1.50;;;18.10;60.20;;;;;;4953691;28;20040;-65
2023/12/27 03:23:55;;;;;;;5.28;2.05;;;18.10;60.20;;;;;;4948266;28;20122;-66
2023/12/27 03:26:20;;;;;;;2.70;1.48;;;18.10;60.20;;;;;;4946977;28;20062;-65
2023/12/27 03:28:46;;;;;;;2.42;1.30;;;18.10;60.20;;;;;;4947039;28;20023;-64
2023/12/27 03:31:13;;;;;;;3.67;1.83;;;18.10;60.30;;;;;;4946915;28;20122;-65
2023/12/27 03:33:38;;;;;;;4.13;1.73;;;18.00;60.20;;;;;;4969339;28;20044;-64
2023/12/27 03:36:04;;;;;;;3.60;1.75;;;18.00;60.20;;;;;;4971674;28;20418;-65
2023/12/27 03:38:29;;;;;;;4.00;1.75;;;18.00;60.30;;;;;;4986747;28;20053;-65
2023/12/27 03:40:55;;;;;;;3.85;1.80;;;18.00;60.20;;;;;;4974330;28;20026;-65
2023/12/27 03:43:20;;;;;;;2.72;1.58;;;18.00;60.30;;;;;;4972428;28;20049;-62
2023/12/27 03:45:46;;;;;;;2.80;1.67;;;18.00;60.30;;;;;;4974342;28;20050;-64
2023/12/27 03:48:12;;;;;;;2.88;1.65;;;18.00;60.30;;;;;;4967008;28;20046;-65
2023/12/27 03:50:37;;;;;;;4.28;1.52;;;18.00;60.30;;;;;;4972241;28;20358;-66
2023/12/27 03:53:03;;;;;;;2.35;1.33;;;18.00;60.30;;;;;;4975913;28;20034;-64
2023/12/27 03:55:28;;;;;;;3.70;1.45;;;18.00;60.30;;;;;;4974863;28;20038;-65
2023/12/27 03:57:54;;;;;;;3.00;1.48;;;17.90;60.30;;;;;;4970729;28;20034;-64
2023/12/27 04:00:20;;;;;;;3.22;1.45;;;17.90;60.30;;;;;;4973178;28;20066;-64
2023/12/27 04:02:46;;;;;;;2.00;1.27;;;17.90;60.30;;;;;;4966460;28;20075;-65
2023/12/27 04:05:12;;;;;;;2.40;1.50;;;18.00;60.40;;;;;;4971439;28;20042;-64
2023/12/27 04:07:38;;;;;;;2.20;1.25;;;17.90;60.40;;;;;;4972537;28;20046;-64
2023/12/27 04:10:05;;;;;;;3.55;1.30;;;17.90;60.40;;;;;;4974485;28;20022;-66
2023/12/27 04:12:30;;;;;;;2.75;1.45;;;17.90;60.30;;;;;;4961340;28;20664;-64
2023/12/27 04:14:56;;;;;;;2.58;1.50;;;17.90;60.30;;;;;;4960896;28;20019;-65
2023/12/27 04:17:21;;;;;;;3.60;1.73;;;17.90;60.30;;;;;;4973563;28;20085;-63
2023/12/27 04:19:46;;;;;;;2.38;1.23;;;17.90;60.30;;;;;;4974232;28;20041;-64
2023/12/27 04:22:12;;;;;;;4.80;1.77;;;17.90;60.40;;;;;;4969073;28;20691;-64
2023/12/27 04:24:37;;;;;;;2.63;1.33;;;17.80;60.40;;;;;;4968945;28;20027;-64
2023/12/27 04:27:03;;;;;;;2.88;1.30;;;17.80;60.40;;;;;;4974753;28;20026;-65
2023/12/27 04:29:29;;;;;;;3.83;1.70;;;17.80;60.30;;;;;;4969882;28;20034;-65
2023/12/27 04:31:54;;;;;;;1.70;1.30;;;17.80;60.30;;;;;;4970960;28;20031;-65
2023/12/27 04:34:20;;;;;;;2.30;1.20;;;17.80;60.30;;;;;;4946897;28;20059;-64
2023/12/27 04:36:45;;;;;;;2.45;1.20;;;17.80;60.40;;;;;;4947032;28;20031;-64
2023/12/27 04:39:11;;;;;;;3.33;1.50;;;17.80;60.30;;;;;;4959011;28;20146;-64
2023/12/27 04:41:36;;;;;;;2.70;1.27;;;17.80;60.30;;;;;;4949394;28;20126;-65
2023/12/27 04:44:02;;;;;;;2.75;1.48;;;17.80;60.40;;;;;;4954908;28;20034;-65
2023/12/27 04:46:27;;;;;;;2.17;1.27;;;17.80;60.30;;;;;;4949496;28;20042;-66
2023/12/27 04:48:53;;;;;;;3.22;1.63;;;17.80;60.30;;;;;;4954155;28;20406;-64
2023/12/27 04:51:18;;;;;;;2.95;1.35;;;17.80;60.40;;;;;;4955313;28;20039;-66
2023/12/27 04:53:44;;;;;;;2.58;1.27;;;17.80;60.30;;;;;;4952195;28;20033;-65
2023/12/27 04:56:09;;;;;;;2.33;1.35;;;17.80;60.30;;;;;;4956718;28;20068;-64
2023/12/27 04:58:38;;;;;;;2.85;1.40;;;17.70;60.30;;;;;;4968481;28;20035;-65
2023/12/27 05:01:05;;;;;;;2.33;0.90;;;17.70;60.30;;;;;;4968372;28;20564;-65
2023/12/27 05:03:34;;;;;;;3.60;1.25;;;17.70;60.30;;;;;;4967891;28;20065;-65
2023/12/27 05:06:07;;;;;;;2.85;1.55;;;17.70;60.20;;;;;;4977666;28;20051;-65
2023/12/27 05:08:33;;;;;;;2.85;1.23;;;17.70;60.30;;;;;;4965831;28;20490;-64
2023/12/27 05:10:58;;;;;;;2.05;1.10;;;17.70;60.30;;;;;;4968244;28;20046;-65
2023/12/27 05:13:24;;;;;;;4.43;1.15;;;17.70;60.30;;;;;;4962896;28;20111;-64
2023/12/27 05:15:49;;;;;;;1.95;1.02;;;17.70;60.30;;;;;;4978046;28;20034;-64
2023/12/27 05:18:15;;;;;;;2.35;0.90;;;17.70;60.30;;;;;;4967958;28;20516;-65
2023/12/27 05:20:40;;;;;;;2.65;1.45;;;17.70;60.30;;;;;;4973275;28;20684;-64
2023/12/27 05:23:06;;;;;;;3.33;1.30;;;17.70;60.30;;;;;;4978530;28;20034;-64
2023/12/27 05:25:32;;;;;;;2.17;0.95;;;17.70;60.30;;;;;;4968532;28;20070;-64
2023/12/27 05:27:57;;;;;;;2.22;1.20;;;17.70;60.30;;;;;;4967349;28;20031;-66
2023/12/27 05:30:23;;;;;;;2.17;1.00;;;17.60;60.20;;;;;;4978248;28;20065;-64
2023/12/27 05:32:48;;;;;;;2.28;1.40;;;17.60;60.20;;;;;;4965658;28;20031;-64
2023/12/27 05:35:14;;;;;;;2.95;1.25;;;17.70;60.30;;;;;;4972886;28;20030;-65
2023/12/27 05:37:39;;;;;;;1.98;1.00;;;17.60;60.30;;;;;;4974428;28;20042;-64
2023/12/27 05:40:05;;;;;;;1.48;1.15;;;17.60;60.30;;;;;;4970722;28;20037;-64
2023/12/27 05:42:31;;;;;;;3.90;1.20;;;17.60;60.30;;;;;;4967547;28;20050;-64
2023/12/27 05:44:56;;;;;;;2.40;1.17;;;17.60;60.30;;;;;;4962117;28;20046;-65
2023/12/27 05:47:22;;;;;;;2.58;1.08;;;17.60;60.20;;;;;;4972425;28;20030;-65
2023/12/27 05:49:48;;;;;;;4.00;1.08;;;17.70;60.20;;;;;;4987625;23;20090;-66
2023/12/27 05:52:13;;;;;;;3.90;1.20;;;17.80;59.90;;;;;;4959449;28;20027;-66
2023/12/27 05:54:39;;;;;;;2.75;0.90;;;17.90;59.50;;;;;;4966589;28;20045;-65
2023/12/27 05:57:04;;;;;;;2.40;1.20;;;18.20;59.10;;;;;;4966660;28;20513;-66
2023/12/27 05:59:30;;;;;;;1.58;0.90;;;18.40;58.70;;;;;;4968753;28;20041;-64
2023/12/27 06:01:55;;;;;;;1.60;0.90;;;18.60;58.10;;;;;;4967589;28;20034;-64
2023/12/27 06:04:21;;;;;;;1.60;0.70;;;18.80;57.60;;;;;;4968378;28;20517;-64
2023/12/27 06:06:49;;;;;;;3.33;1.10;;;19.10;57.20;;;;;;4974888;28;20029;-65
2023/12/27 06:09:16;;;;;;;3.38;1.15;;;19.30;56.80;;;;;;4969638;28;20081;-65
2023/12/27 06:11:41;;;;;;;2.92;0.82;;;19.50;56.50;;;;;;4974052;28;20100;-65
2023/12/27 06:14:07;;;;;;;1.08;0.85;;;19.60;56.10;;;;;;4956957;28;20110;-64
2023/12/27 06:16:32;;;;;;;1.27;1.00;;;19.80;55.80;;;;;;4968258;28;20023;-65
2023/12/27 06:19:00;;;;;;;1.77;0.90;;;19.90;55.50;;;;;;4967869;28;20041;-64
2023/12/27 06:21:25;;;;;;;2.10;1.10;;;20.00;55.40;;;;;;4952541;28;20045;-64
2023/12/27 06:23:51;;;;;;;1.58;0.82;;;20.00;55.40;;;;;;4966540;28;20038;-65
2023/12/27 06:26:16;;;;;;;1.48;0.90;;;20.00;55.40;;;;;;4968240;28;20039;-65
2023/12/27 06:28:44;;;;;;;2.03;0.95;;;20.00;55.50;;;;;;4965783;28;20138;-64
2023/12/27 06:31:09;;;;;;;2.63;0.95;;;19.90;55.60;;;;;;4967221;28;20054;-64
2023/12/27 06:33:35;;;;;;;1.17;0.90;;;19.90;55.80;;;;;;4965943;28;20450;-65
2023/12/27 06:36:00;;;;;;;2.42;0.90;;;19.80;56.00;;;;;;4967051;28;20018;-65
2023/12/27 06:38:26;;;;;;;3.30;1.00;;;19.70;56.10;;;;;;4948971;28;20041;-64
2023/12/27 06:40:52;;;;;;;2.33;0.82;;;19.70;56.20;;;;;;4949360;28;20023;-65
2023/12/27 06:43:17;;;;;;;1.73;1.00;;;19.60;56.40;;;;;;4966388;28;20122;-65
2023/12/27 06:45:43;;;;;;;1.95;0.77;;;19.50;56.50;;;;;;4969825;28;20035;-65
2023/12/27 06:48:08;;;;;;;1.95;1.10;;;19.50;56.60;;;;;;4962359;28;20050;-64
2023/12/27 06:50:34;;;;;;;2.15;0.88;;;19.40;56.80;;;;;;4947678;28;20054;-65
2023/12/27 06:52:59;;;;;;;1.98;1.00;;;19.40;56.90;;;;;;4957837;28;20533;-65
2023/12/27 06:55:25;;;;;;;1.25;0.75;;;19.30;57.00;;;;;;4969487;28;20035;-64
2023/12/27 06:57:50;;;;;;;2.88;0.80;;;19.20;57.10;;;;;;4965311;28;20043;-64
2023/12/27 07:00:16;;;;;;;2.45;0.90;;;19.20;57.30;;;;;;4968776;28;20034;-63
2023/12/27 07:02:41;;;;;;;2.17;1.02;;;19.10;57.30;;;;;;4966227;28;20557;-64
2023/12/27 07:05:07;;;;;;;2.15;0.90;;;19.10;57.50;;;;;;4967921;28;20049;-64
2023/12/27 07:07:34;;;;;;;2.38;1.20;;;19.00;57.60;;;;;;4966297;28;20027;-64
2023/12/27 07:09:59;;;;;;;2.03;0.80;;;19.00;57.60;;;;;;4949694;28;20031;-64
2023/12/27 07:12:25;;;;;;;2.78;1.00;;;18.90;57.80;;;;;;4965475;28;20031;-64
2023/12/27 07:14:50;;;;;;;2.35;0.80;;;18.90;57.90;;;;;;4965386;28;20054;-64
2023/12/27 07:17:15;;;;;;;1.08;0.85;;;18.80;57.90;;;;;;4969771;28;20027;-64
2023/12/27 07:19:41;;;;;;;2.15;0.90;;;18.80;57.90;;;;;;4948044;28;20105;-64
2023/12/27 07:22:06;;;;;;;1.45;0.88;;;18.80;58.10;;;;;;4968823;28;20122;-64
2023/12/27 07:24:32;;;;;;;2.42;1.25;;;18.70;58.10;;;;;;4965984;28;20441;-65
2023/12/27 07:26:58;;;;;;;2.10;0.80;;;18.70;58.10;;;;;;4974838;28;20033;-64
2023/12/27 07:29:23;;;;;;;1.42;0.70;;;18.60;58.10;;;;;;4972400;28;20062;-64
2023/12/27 07:31:49;;;;;;;1.73;0.82;;;18.60;58.20;;;;;;4974409;28;20042;-65
2023/12/27 07:34:16;;;;;;;1.77;0.95;;;18.60;58.20;;;;;;4973087;28;20034;-60
2023/12/27 07:36:41;;;;;;;2.63;1.05;;;18.50;58.30;;;;;;4972954;28;20019;-61
2023/12/27 07:39:09;;;;;;;2.28;0.57;;;18.50;58.40;;;;;;4971469;28;20093;-60
2023/12/27 07:41:35;;;;;;;2.38;1.10;;;18.50;58.50;;;;;;4972114;28;20039;-66
2023/12/27 07:44:00;;;;;;;2.80;0.75;;;18.40;58.50;;;;;;4971595;28;20034;-66
2023/12/27 07:46:26;;;;;;;2.13;0.88;;;18.40;58.60;;;;;;4972977;28;20096;-65
2023/12/27 07:48:51;;;;;;;2.17;0.80;;;18.40;58.50;;;;;;4973349;28;20520;-65
2023/12/27 07:51:17;;;;;;;2.67;1.20;;;18.40;58.60;;;;;;4977683;28;20042;-65
2023/12/27 07:53:42;;;;;;;1.92;0.98;;;18.40;58.70;;;;;;4972103;28;20166;-65
2023/12/27 07:56:09;;;;;;;4.38;1.30;;;18.40;58.70;;;;;;4959769;28;20043;-65
2023/12/27 07:58:35;;;;;;;1.83;0.80;;;18.40;58.60;;;;;;4953306;28;20415;-65
2023/12/27 08:01:00;;;;;;;1.25;0.73;;;18.30;58.70;;;;;;4949632;28;20035;-65
2023/12/27 08:03:26;;;;;;;1.50;0.93;;;18.30;58.70;;;;;;4973209;28;20045;-63
2023/12/27 08:05:51;;;;;;;1.48;1.00;;;18.30;58.80;;;;;;4971873;28;20468;-62
2023/12/27 08:08:17;;;;;;;2.40;0.98;;;18.30;58.90;;;;;;4972971;28;20042;-60
2023/12/27 08:10:43;;;;;;;2.65;1.40;;;18.30;58.90;;;;;;4972191;28;20051;-63
2023/12/27 08:13:08;;;;;;;1.98;1.08;;;18.30;59.10;;;;;;4969353;28;20033;-65
2023/12/27 08:15:34;;;;;;;4.13;1.35;;;18.20;59.10;;;;;;4968241;28;20401;-62
2023/12/27 08:18:03;;;;;;;3.05;1.45;;;18.20;59.10;;;;;;4975392;28;20045;-64
2023/12/27 08:20:28;;;;;;;3.33;1.45;;;18.20;59.20;;;;;;4955420;28;20122;-62
2023/12/27 08:22:54;;;;;;;3.53;1.80;;;18.20;59.20;;;;;;4974040;28;20545;-64
2023/12/27 08:25:19;;;;;;;6.10;2.20;;;18.20;59.20;;;;;;4971773;28;20097;-64
2023/12/27 08:27:45;;;;;;;3.05;1.80;;;18.20;59.20;;;;;;4972209;28;20125;-64
2023/12/27 08:30:11;;;;;;;2.67;1.63;;;18.20;59.30;;;;;;4971266;28;20031;-64
2023/12/27 08:32:36;;;;;;;3.33;1.98;;;18.10;59.20;;;;;;4971166;28;20486;-66
2023/12/27 08:35:02;;;;;;;3.45;1.80;;;18.10;59.30;;;;;;4971084;28;20031;-66
2023/12/27 08:37:27;;;;;;;3.85;2.28;;;18.10;59.30;;;;;;4971167;28;20057;-64
2023/12/27 08:39:52;;;;;;;5.32;2.13;;;18.10;59.30;;;;;;4967978;28;20077;-65
2023/12/27 08:42:18;;;;;;;5.55;2.28;;;18.10;59.20;;;;;;4969357;28;20078;-64
2023/12/27 08:44:43;;;;;;;3.33;2.22;;;18.10;59.30;;;;;;4967234;28;20030;-63
2023/12/27 08:47:09;;;;;;;3.95;2.90;;;18.10;59.30;;;;;;4951742;28;20475;-65
2023/12/27 08:49:34;;;;;;;3.67;2.35;;;18.10;59.30;;;;;;4952035;28;20030;-65
2023/12/27 08:52:00;;;;;;;4.00;2.58;;;18.10;59.30;;;;;;4951275;28;20027;-64
2023/12/27 08:54:25;;;;;;;4.18;2.15;;;18.10;59.30;;;;;;4956927;28;20051;-67
2023/12/27 08:56:51;;;;;;;6.63;2.50;;;18.10;59.30;;;;;;4955888;28;20027;-67
2023/12/27 08:59:16;;;;;;;8.32;3.53;;;18.10;59.30;;;;;;4969282;28;20077;-66
2023/12/27 09:01:42;;;;;;;9.52;4.57;;;18.10;59.40;;;;;;4969201;28;20031;-67
2023/12/27 09:04:07;;;;;;;12.75;7.40;;;18.00;59.40;;;;;;4969661;28;20043;-67
2023/12/27 09:06:33;;;;;;;21.63;11.23;;;18.00;59.50;;;;;;4966558;28;20023;-68
2023/12/27 09:08:58;;;;;;;22.60;12.48;;;18.10;59.60;;;;;;4964333;28;20445;-67
2023/12/27 09:11:24;;;;;;;33.05;16.20;;;18.00;59.60;;;;;;4964307;28;20051;-68
2023/12/27 09:13:49;;;;;;;28.83;15.40;;;18.00;59.60;;;;;;4946641;28;20038;-67
2023/12/27 09:16:15;;;;;;;29.60;14.55;;;18.00;59.70;;;;;;4967259;28;20039;-67
2023/12/27 09:18:40;;;;;;;27.05;15.25;;;18.00;59.80;;;;;;4969274;28;20118;-66
2023/12/27 09:21:06;;;;;;;32.67;15.27;;;18.00;59.80;;;;;;4966493;28;20023;-67
2023/12/27 09:23:32;;;;;;;31.65;15.75;;;18.00;59.90;;;;;;4966064;28;20054;-67
2023/12/27 09:25:57;;;;;;;29.80;15.82;;;18.00;59.80;;;;;;4967256;28;20039;-67
2023/12/27 09:28:25;;;;;;;29.38;14.40;;;18.00;59.80;;;;;;4969730;28;20031;-68
2023/12/27 09:30:51;;;;;;;30.83;14.75;;;18.00;59.70;;;;;;4970886;28;20038;-63
2023/12/27 09:33:17;;;;;;;27.98;14.90;;;18.00;59.80;;;;;;4968375;28;20038;-66
2023/12/27 09:35:42;;;;;;;29.70;14.57;;;17.90;59.70;;;;;;4966435;28;20058;-66
2023/12/27 09:38:08;;;;;;;31.08;14.52;;;17.90;59.80;;;;;;4965271;28;20088;-67
2023/12/27 09:40:33;;;;;;;27.50;13.82;;;17.90;59.70;;;;;;4963800;28;20035;-66
2023/12/27 09:43:03;;;;;;;28.15;14.55;;;17.90;59.80;;;;;;4966709;28;20047;-62
2023/12/27 09:45:33;;;;;;;25.45;14.02;;;17.90;59.80;;;;;;4964072;28;20034;-66
2023/12/27 09:48:01;;;;;;;25.85;14.05;;;17.90;60.00;;;;;;4968031;28;20117;-63
2023/12/27 09:50:26;;;;;;;26.75;13.27;;;17.90;59.90;;;;;;4967206;28;20667;-64
2023/12/27 09:52:54;;;;;;;26.40;13.60;;;18.00;59.80;;;;;;4968149;28;20033;-65
2023/12/27 09:55:19;;;;;;;21.77;12.75;;;17.90;59.80;;;;;;4968280;28;20137;-64
2023/12/27 09:57:48;;;;;;;32.03;13.95;;;17.90;59.80;;;;;;4967666;28;20672;-64
2023/12/27 10:00:16;;;;;;;26.83;13.85;;;17.90;59.80;;;;;;4960437;28;20082;-65
2023/12/27 10:02:44;;;;;;;23.38;12.32;;;17.90;59.80;;;;;;4948364;28;20039;-64
2023/12/27 10:05:18;;;;;;;28.63;12.82;;;17.90;59.80;;;;;;4949564;28;20590;-64
2023/12/27 10:07:44;;;;;;;25.75;12.77;;;17.90;59.80;;;;;;4949313;28;20031;-65
2023/12/27 10:10:10;;;;;;;26.80;13.10;;;17.80;59.80;;;;;;4968164;28;20104;-64
2023/12/27 10:12:35;;;;;;;23.77;12.65;;;17.80;59.80;;;;;;4966835;28;20054;-66
2023/12/27 10:15:02;;;;;;;24.73;12.05;;;17.80;59.70;;;;;;4964753;28;20089;-67
2023/12/27 10:17:27;;;;;;;23.27;12.13;;;17.80;59.80;;;;;;4951674;28;20031;-66
2023/12/27 10:19:53;;;;;;;24.40;12.73;;;17.80;59.80;;;;;;4968086;28;20034;-67
2023/12/27 10:22:18;;;;;;;23.77;12.30;;;17.80;59.80;;;;;;4966227;28;20035;-66
2023/12/27 10:24:44;;;;;;;22.70;11.77;;;17.80;59.80;;;;;;4967467;28;20398;-67
2023/12/27 10:27:12;;;;;;;22.00;11.35;;;17.80;59.80;;;;;;4967000;28;20049;-66
2023/12/27 10:29:38;;;;;;;23.35;12.25;;;17.80;59.80;;;;;;4969313;28;20047;-66
2023/12/27 10:32:06;;;;;;;23.33;11.68;;;17.80;59.80;;;;;;4967044;28;20111;-66
2023/12/27 10:34:32;;;;;;;18.20;11.57;;;17.80;59.80;;;;;;4969757;28;20023;-67
2023/12/27 10:36:59;;;;;;;19.02;10.70;;;17.80;59.80;;;;;;4966373;28;20041;-66
2023/12/27 10:39:25;;;;;;;21.35;11.82;;;17.80;59.80;;;;;;4969417;28;20038;-66
2023/12/27 10:41:54;;;;;;;22.50;11.30;;;17.80;59.90;;;;;;4967984;28;20069;-66
2023/12/27 10:44:20;;;;;;;21.35;11.20;;;17.90;59.70;;;;;;4967043;28;20114;-66
2023/12/27 10:46:48;;;;;;;29.92;13.38;;;18.00;59.40;;;;;;4969688;28;20121;-67
2023/12/27 10:49:14;;;;;;;18.45;11.40;;;18.20;59.00;;;;;;4964727;28;20720;-66
2023/12/27 10:51:40;;;;;;;21.50;10.73;;;18.50;58.40;;;;;;4968170;28;20043;-65
2023/12/27 10:54:07;;;;;;;19.42;10.23;;;18.80;57.80;;;;;;4968905;28;20374;-66
2023/12/27 10:56:37;;;;;;;19.88;10.00;;;19.00;57.20;;;;;;4965336;28;20027;-64
2023/12/27 10:59:07;;;;;;;16.30;10.00;;;19.30;56.70;;;;;;4966116;28;20532;-67
2023/12/27 11:01:38;;;;;;;17.85;10.23;;;19.50;56.30;;;;;;4964309;28;20089;-65
2023/12/27 11:04:07;;;;;;;16.50;9.50;;;19.80;55.90;;;;;;4967521;28;20644;-67
2023/12/27 11:06:36;;;;;;;19.10;9.43;;;20.00;55.40;;;;;;4968559;28;20042;-67
2023/12/27 11:09:06;;;;;;;18.95;10.32;;;20.20;55.10;;;;;;4966156;28;20034;-66
2023/12/27 11:11:38;;;;;;;14.73;8.68;;;20.30;54.80;;;;;;4958800;28;20027;-67
2023/12/27 11:14:05;;;;;;;16.77;9.52;;;20.40;54.60;;;;;;4960823;28;20061;-67
2023/12/27 11:16:35;;;;;;;19.70;9.23;;;20.40;54.60;;;;;;4966716;28;20100;-67
2023/12/27 11:19:03;;;;;;;15.27;8.50;;;20.40;54.70;;;;;;4949127;28;20078;-67
2023/12/27 11:21:29;;;;;;;13.55;8.65;;;20.30;54.80;;;;;;4968098;28;20030;-68
2023/12/27 11:23:55;;;;;;;13.75;8.88;;;20.30;54.90;;;;;;4966645;28;20031;-67
2023/12/27 11:26:21;;;;;;;14.85;8.15;;;20.20;55.10;;;;;;4969367;28;20041;-66
2023/12/27 11:28:46;;;;;;;13.52;8.25;;;20.10;55.20;;;;;;4969396;28;20110;-67
2023/12/27 11:31:15;;;;;;;15.85;8.57;;;20.10;55.50;;;;;;4970210;28;20117;-68
2023/12/27 11:33:43;;;;;;;16.58;9.00;;;20.00;55.60;;;;;;4966121;28;20110;-67
2023/12/27 11:36:10;;;;;;;15.55;8.73;;;19.90;55.80;;;;;;4970288;28;20533;-67
2023/12/27 11:38:37;;;;;;;14.13;8.85;;;19.90;55.90;;;;;;4966944;28;20122;-66
2023/12/27 11:41:03;;;;;;;17.05;8.00;;;19.80;56.00;;;;;;4962831;28;20035;-68
2023/12/27 11:43:56;;;;;;;11.70;7.68;;;19.80;56.30;;;;;;4964906;28;20035;-67
2023/12/27 11:46:30;;;;;;;13.88;8.80;;;19.70;56.40;;;;;;4964059;28;20046;-67
2023/12/27 11:48:58;;;;;;;15.25;7.93;;;19.60;56.60;;;;;;4963969;28;20727;-67
2023/12/27 11:51:36;;;;;;;14.00;7.97;;;19.60;56.90;;;;;;4961766;28;20039;-67
2023/12/27 11:54:03;;;;;;;12.63;7.68;;;19.50;57.00;;;;;;4962663;28;20030;-65
2023/12/27 11:56:33;;;;;;;11.68;7.00;;;19.40;57.20;;;;;;4964098;28;20037;-65
2023/12/27 11:59:02;;;;;;;10.82;7.97;;;19.30;57.20;;;;;;4961222;28;20058;-67
2023/12/27 12:01:35;;;;;;;12.38;7.15;;;19.30;57.40;;;;;;4963559;28;20063;-67
2023/12/27 12:04:26;;;;;;;12.98;7.25;;;19.20;57.60;;;;;;4961324;28;20125;-67
2023/12/27 12:06:55;;;;;;;12.48;7.43;;;19.10;57.70;;;;;;4961515;28;23925;-67
2023/12/27 12:09:35;;;;;;;10.57;6.80;;;19.10;57.90;;;;;;4961734;28;20035;-66
2023/12/27 12:12:09;;;;;;;11.52;7.13;;;19.00;57.90;;;;;;4964350;28;20062;-67
2023/12/27 12:14:35;;;;;;;10.60;6.25;;;19.00;58.00;;;;;;4967297;28;20038;-66
2023/12/27 12:17:01;;;;;;;11.82;7.07;;;19.00;58.10;;;;;;4965332;28;20033;-66
2023/12/27 12:19:28;;;;;;;9.50;6.35;;;18.90;58.10;;;;;;4967659;28;20564;-68
2023/12/27 12:21:55;;;;;;;12.85;7.70;;;18.90;58.30;;;;;;4960870;28;20126;-67
2023/12/27 12:24:21;;;;;;;9.45;6.15;;;18.80;58.30;;;;;;4952508;28;20043;-67
2023/12/27 12:26:48;;;;;;;9.85;6.20;;;18.80;58.40;;;;;;4972628;28;20031;-67
2023/12/27 12:29:14;;;;;;;10.75;6.15;;;18.70;58.50;;;;;;4965646;28;20697;-67
2023/12/27 12:31:40;;;;;;;8.93;6.35;;;18.70;58.60;;;;;;4968296;28;20034;-67
2023/12/27 12:34:05;;;;;;;11.48;6.40;;;18.70;58.60;;;;;;4964877;28;20042;-67
2023/12/27 12:36:31;;;;;;;11.05;6.63;;;18.70;58.60;;;;;;4970438;28;20026;-67
2023/12/27 12:38:57;;;;;;;10.25;5.45;;;18.70;58.60;;;;;;4967792;28;20126;-67